Sabancı University Helipad

TR-0063 · 科贾埃利省, 土耳其

罗盘
风向 的 直升机
风: 0 kt, 0 beaufort
0 ft 1.000 2.000 3.000 4.000 5.000
CAVOK
METAR LTFJ 232250Z 00000KT CAVOK 12/06 Q1019 NOSIG

METAR Sabancı University Helipad - TR-0063

Sabancı University Helipad是,土耳其中的直升机场。 该机场位于纬度40,89357和经度29,37775。 这个机场没有ICAO代码,我们使用TR-0063作为参考。 机场在Istanbul FIR中。

该航空气象观测是针对Istanbul Sabiha Gökçen International Airport在2024年2月24日 01:50, 当地时间进行的。

机场观察

可变方向的风很小或没有风。

天气为CAVOK。这意味着在5.000 ft或MSA(最低安全高度)以下(以较高者为准)以下没有云。这也意味着没有观测到积雨云或高耸的积云,可见度为10 km 或者更多或更高。此外,不会有雾,降雨或其他重要天气。

温度和风寒是12 °C。 露点为6 °C,相对湿度为67%。 海平面上的气压为1019 hPa (QNH)。

白天

今天,太阳从07:46升起,在18:45降落。 这适用于Sabancı University Helipad,世界夏令时可能有所不同。 当地时间与世界标准时间之间的时差为+3 小时。 当前,没有夏令时有效。

公司介绍

我们没有关于这个机场的公司信息。

体会

到Vliegles.nl去找飞行课程,跳伞和其他飞行体验。 浏览页面,了解Sabancı University Helipad附近所有可用的活动。 你也可以使用搜索功能来寻找你所在地附近的特定飞行课程、跳伞或其他飞行体验。

温度 & 天气

温度 12 °C
露点 6 °C
相对湿度 67%
Kp-index 0 (0-9)

白天

日出
07:46 (5:20)
中午
13:16
日落
18:45

小工具

你想在你的网站上有一个关于Sabancı University Helipad的当前航空天气(METAR)的小部件吗?

显示HTML代码
?>